createdAt,value
2024-05-09T00:01:55.577Z,13.67
2024-05-09T00:04:26.920Z,13.87
2024-05-09T00:06:57.825Z,11.20
2024-05-09T00:09:28.734Z,9.33
2024-05-09T00:11:57.186Z,10.10
2024-05-09T00:14:26.210Z,8.97
2024-05-09T00:16:55.253Z,10.50
2024-05-09T00:19:23.654Z,10.07
2024-05-09T00:21:51.350Z,10.10
2024-05-09T00:24:21.324Z,10.33
2024-05-09T00:26:50.309Z,9.73
2024-05-09T00:29:18.782Z,10.17
2024-05-09T00:31:46.455Z,12.63
2024-05-09T00:34:24.317Z,9.50
2024-05-09T00:36:51.745Z,11.63
2024-05-09T00:39:20.040Z,12.40
2024-05-09T00:41:48.474Z,10.73
2024-05-09T00:44:16.976Z,10.30
2024-05-09T00:46:45.792Z,9.77
2024-05-09T00:49:15.765Z,10.00
2024-05-09T00:51:48.249Z,10.47
2024-05-09T00:54:25.868Z,10.13
2024-05-09T00:56:56.337Z,9.73
2024-05-09T00:59:28.391Z,11.67
2024-05-09T01:02:00.469Z,10.80
2024-05-09T01:04:32.397Z,10.17
2024-05-09T01:07:04.997Z,9.80
2024-05-09T01:09:36.486Z,10.27
2024-05-09T01:12:06.579Z,9.37
2024-05-09T01:14:41.975Z,10.30
2024-05-09T01:17:09.414Z,9.13
2024-05-09T01:19:41.835Z,7.43
2024-05-09T01:22:11.550Z,7.53
2024-05-09T01:24:50.709Z,7.27
2024-05-09T01:27:29.825Z,7.40
2024-05-09T01:29:59.869Z,6.60
2024-05-09T01:32:28.551Z,7.30
2024-05-09T01:34:58.125Z,7.23
2024-05-09T01:37:25.975Z,7.40
2024-05-09T01:39:55.912Z,7.30
2024-05-09T01:42:25.402Z,7.57
2024-05-09T01:44:54.060Z,7.13
2024-05-09T01:47:28.856Z,7.97
2024-05-09T01:49:59.882Z,8.03
2024-05-09T01:52:28.407Z,7.00
2024-05-09T01:54:55.675Z,7.63
2024-05-09T01:57:24.312Z,8.57
2024-05-09T02:00:00.627Z,9.73
2024-05-09T02:02:29.268Z,10.80
2024-05-09T02:05:01.552Z,8.13
2024-05-09T02:07:40.216Z,7.73
2024-05-09T02:10:16.465Z,7.33
2024-05-09T02:12:53.108Z,8.30
2024-05-09T02:15:22.057Z,7.57
2024-05-09T02:17:51.886Z,8.23
2024-05-09T02:20:30.614Z,8.13
2024-05-09T02:23:06.804Z,9.23
2024-05-09T02:25:38.182Z,7.43
2024-05-09T02:28:08.950Z,7.77
2024-05-09T02:30:41.425Z,8.23
2024-05-09T02:33:13.569Z,7.93
2024-05-09T02:35:44.296Z,7.87
2024-05-09T02:38:14.918Z,7.30
2024-05-09T02:40:44.092Z,7.47
2024-05-09T02:43:14.476Z,7.37
2024-05-09T02:45:44.213Z,8.00
2024-05-09T02:48:13.961Z,8.63
2024-05-09T02:50:42.421Z,8.53
2024-05-09T02:53:12.516Z,8.43
2024-05-09T02:55:52.054Z,6.97
2024-05-09T02:58:23.490Z,7.20
2024-05-09T03:01:00.193Z,7.63
2024-05-09T03:03:31.819Z,7.23
2024-05-09T03:06:03.937Z,6.83
2024-05-09T03:08:34.689Z,6.67
2024-05-09T03:11:03.896Z,7.27
2024-05-09T03:13:40.170Z,6.80
2024-05-09T03:16:08.993Z,6.47
2024-05-09T03:18:37.578Z,7.20
2024-05-09T03:21:15.588Z,6.80
2024-05-09T03:23:51.891Z,5.80
2024-05-09T03:26:21.411Z,6.20
2024-05-09T03:28:48.956Z,5.80
2024-05-09T03:31:27.209Z,6.60
2024-05-09T03:33:54.902Z,5.53
2024-05-09T03:36:24.794Z,6.00
2024-05-09T03:39:00.050Z,6.53
2024-05-09T03:41:29.000Z,5.63
2024-05-09T03:43:58.450Z,6.13
2024-05-09T03:46:27.227Z,5.90
2024-05-09T03:48:57.075Z,6.23
2024-05-09T03:51:34.899Z,6.17
2024-05-09T03:54:03.427Z,5.90
2024-05-09T03:56:40.752Z,6.23
2024-05-09T03:59:18.564Z,6.43
2024-05-09T04:01:48.206Z,6.80
2024-05-09T04:04:15.495Z,6.37
2024-05-09T04:06:43.784Z,7.07
2024-05-09T04:09:12.684Z,7.67
2024-05-09T04:11:43.463Z,7.63
2024-05-09T04:14:11.887Z,7.83
2024-05-09T04:16:49.496Z,9.43
2024-05-09T04:19:20.114Z,7.83
2024-05-09T04:21:53.356Z,6.90
2024-05-09T04:24:22.057Z,6.83
2024-05-09T04:26:49.329Z,6.63
2024-05-09T04:29:19.449Z,5.83
2024-05-09T04:33:13.250Z,6.27
2024-05-09T04:34:59.340Z,6.33
2024-05-09T04:37:41.872Z,6.00
2024-05-09T04:40:24.339Z,5.50
2024-05-09T04:46:58.502Z,5.93
2024-05-09T04:56:18.578Z,5.70
2024-05-09T04:59:14.110Z,5.97
2024-05-09T05:07:59.051Z,5.50
2024-05-09T05:30:47.278Z,6.03
2024-05-09T05:33:40.553Z,5.00
2024-05-09T05:45:16.866Z,5.30
2024-05-09T05:48:02.797Z,5.50
2024-05-09T05:54:15.432Z,4.53
2024-05-09T05:57:08.717Z,4.90
2024-05-09T05:59:41.113Z,4.60
2024-05-09T06:02:42.523Z,5.07
2024-05-09T06:05:15.541Z,4.77
2024-05-09T06:07:49.649Z,4.83
2024-05-09T06:10:49.411Z,5.03
2024-05-09T06:13:46.216Z,5.00
2024-05-09T06:16:28.711Z,4.83
2024-05-09T06:19:03.713Z,4.37
2024-05-09T06:21:47.508Z,4.43
2024-05-09T06:24:37.558Z,4.87
2024-05-09T06:33:41.729Z,4.83
2024-05-09T06:36:35.282Z,4.20
2024-05-09T06:42:18.838Z,4.43
2024-05-09T06:45:11.269Z,4.57
2024-05-09T06:47:41.691Z,4.30
2024-05-09T06:50:23.411Z,3.90
2024-05-09T06:55:54.447Z,3.87
2024-05-09T07:01:53.672Z,3.87
2024-05-09T07:04:21.303Z,3.67
2024-05-09T07:07:11.623Z,3.30
2024-05-09T07:10:21.704Z,4.27
2024-05-09T07:16:04.080Z,3.30
2024-05-09T07:18:39.003Z,3.45
2024-05-09T07:24:33.350Z,3.25
2024-05-09T07:27:02.093Z,3.58
2024-05-09T07:29:33.435Z,3.28
2024-05-09T07:32:13.094Z,3.50
2024-05-09T07:34:43.273Z,3.40
2024-05-09T07:38:20.696Z,3.67
2024-05-09T07:41:06.508Z,3.30
2024-05-09T07:44:04.400Z,3.53
2024-05-09T07:48:14.383Z,3.33
2024-05-09T07:55:57.328Z,3.60
2024-05-09T07:58:27.993Z,3.10
2024-05-09T08:01:05.226Z,3.20
2024-05-09T08:10:10.653Z,2.90
2024-05-09T08:12:56.256Z,2.85
2024-05-09T08:15:46.019Z,2.80
2024-05-09T08:18:25.029Z,3.42
2024-05-09T08:21:16.162Z,3.10
2024-05-09T08:24:00.924Z,2.90
2024-05-09T08:26:33.080Z,2.92
2024-05-09T08:29:37.353Z,2.70
2024-05-09T08:35:13.504Z,2.55
2024-05-09T08:37:51.700Z,2.50
2024-05-09T08:40:39.324Z,2.78
2024-05-09T08:44:07.665Z,2.60
2024-05-09T08:47:24.187Z,3.00
2024-05-09T08:50:38.822Z,2.58
2024-05-09T08:56:17.276Z,2.80
2024-05-09T09:01:57.524Z,2.63
2024-05-09T09:04:33.678Z,3.20
2024-05-09T09:07:27.833Z,3.25
2024-05-09T09:10:13.079Z,2.80
2024-05-09T09:15:57.998Z,3.10
2024-05-09T09:18:43.080Z,3.00
2024-05-09T09:24:57.648Z,2.65
2024-05-09T09:27:34.970Z,2.55
2024-05-09T09:33:02.068Z,2.47
2024-05-09T09:35:57.073Z,2.35
2024-05-09T09:38:38.189Z,2.90
2024-05-09T09:41:29.118Z,2.58
2024-05-09T09:43:59.735Z,2.38
2024-05-09T09:46:37.426Z,2.50
2024-05-09T09:49:10.768Z,2.28
2024-05-09T09:51:45.981Z,2.65
2024-05-09T09:54:16.732Z,2.40
2024-05-09T09:56:50.968Z,2.67
2024-05-09T09:59:28.081Z,2.75
2024-05-09T10:01:56.392Z,2.90
2024-05-09T10:07:18.726Z,2.28
2024-05-09T10:09:57.130Z,2.30
2024-05-09T10:12:35.586Z,2.28
2024-05-09T10:15:12.061Z,2.22
2024-05-09T10:17:55.475Z,2.50
2024-05-09T10:20:28.185Z,2.13
2024-05-09T10:23:00.070Z,2.40
2024-05-09T10:25:28.879Z,2.40
2024-05-09T10:27:56.616Z,2.10
2024-05-09T10:30:33.996Z,1.95
2024-05-09T10:33:05.637Z,2.20
2024-05-09T10:35:42.826Z,2.20
2024-05-09T10:38:11.700Z,2.60
2024-05-09T10:40:52.305Z,2.30
2024-05-09T10:43:30.887Z,1.95
2024-05-09T10:46:06.503Z,2.25
2024-05-09T10:48:34.830Z,2.10
2024-05-09T10:51:08.180Z,2.47
2024-05-09T10:53:49.351Z,2.30
2024-05-09T10:56:21.395Z,2.50
2024-05-09T10:59:00.638Z,2.30
2024-05-09T11:01:34.123Z,2.22
2024-05-09T11:04:08.168Z,2.22
2024-05-09T11:06:38.867Z,2.45
2024-05-09T11:09:07.689Z,2.35
2024-05-09T11:11:36.592Z,2.35
2024-05-09T11:14:17.258Z,2.30
2024-05-09T11:16:53.611Z,2.15
2024-05-09T11:19:22.329Z,2.20
2024-05-09T11:21:55.059Z,2.13
2024-05-09T11:24:31.206Z,2.33
2024-05-09T11:27:07.551Z,2.05
2024-05-09T11:29:46.223Z,2.13
2024-05-09T11:32:15.029Z,2.63
2024-05-09T11:34:44.179Z,2.20
2024-05-09T11:37:21.630Z,2.50
2024-05-09T11:39:57.042Z,2.53
2024-05-09T11:42:33.183Z,2.70
2024-05-09T11:45:06.554Z,2.00
2024-05-09T11:47:34.254Z,2.20
2024-05-09T11:50:13.001Z,2.17
2024-05-09T11:52:46.015Z,2.47
2024-05-09T11:55:27.408Z,5.55
2024-05-09T11:58:00.076Z,4.05
2024-05-09T12:00:34.168Z,2.47
2024-05-09T12:03:08.309Z,2.10
2024-05-09T12:05:38.108Z,15.23
2024-05-09T12:08:08.259Z,2.13
2024-05-09T12:10:38.524Z,2.42
2024-05-09T12:13:09.151Z,2.20
2024-05-09T12:15:39.878Z,9.02
2024-05-09T12:18:18.538Z,7.40
2024-05-09T12:20:52.126Z,2.20
2024-05-09T12:23:22.389Z,2.45
2024-05-09T12:25:56.129Z,2.30
2024-05-09T12:28:27.615Z,2.58
2024-05-09T12:30:58.114Z,2.40
2024-05-09T12:33:26.754Z,2.33
2024-05-09T12:35:55.711Z,2.50
2024-05-09T12:38:26.724Z,2.13
2024-05-09T12:40:56.946Z,2.55
2024-05-09T12:43:29.307Z,2.42
2024-05-09T12:46:06.578Z,2.30
2024-05-09T12:48:38.462Z,2.20
2024-05-09T12:51:12.540Z,2.55
2024-05-09T12:53:51.102Z,2.25
2024-05-09T12:56:21.523Z,2.17
2024-05-09T12:58:51.891Z,2.35
2024-05-09T13:01:22.850Z,2.58
2024-05-09T13:03:53.202Z,2.30
2024-05-09T13:06:30.972Z,2.22
2024-05-09T13:09:01.148Z,2.33
2024-05-09T13:11:29.107Z,2.17
2024-05-09T13:13:58.058Z,2.13
2024-05-09T13:16:29.741Z,2.40
2024-05-09T13:18:58.802Z,2.40
2024-05-09T13:21:27.342Z,2.03
2024-05-09T13:23:59.263Z,2.40
2024-05-09T13:26:30.308Z,2.30
2024-05-09T13:29:10.825Z,2.20
2024-05-09T13:31:40.917Z,2.20
2024-05-09T13:34:09.809Z,2.72
2024-05-09T13:36:37.457Z,2.20
2024-05-09T13:39:08.850Z,2.15
2024-05-09T13:41:47.266Z,2.20
2024-05-09T13:44:14.612Z,1.90
2024-05-09T13:46:45.757Z,2.00
2024-05-09T13:49:17.636Z,1.92
2024-05-09T13:51:54.920Z,1.95
2024-05-09T13:54:32.783Z,1.92
2024-05-09T13:57:02.288Z,2.00
2024-05-09T13:59:33.126Z,2.00
2024-05-09T14:02:04.673Z,1.92
2024-05-09T14:04:33.447Z,2.00
2024-05-09T14:07:05.044Z,1.88
2024-05-09T14:09:33.925Z,2.10
2024-05-09T14:12:09.736Z,1.90
2024-05-09T14:14:39.748Z,1.85
2024-05-09T14:17:07.064Z,1.90
2024-05-09T14:19:34.342Z,1.80
2024-05-09T14:22:07.908Z,2.20
2024-05-09T14:24:37.100Z,1.63
2024-05-09T14:27:06.755Z,2.10
2024-05-09T14:29:36.521Z,1.88
2024-05-09T14:32:13.591Z,1.98
2024-05-09T14:34:42.729Z,1.77
2024-05-09T14:37:12.141Z,2.05
2024-05-09T14:39:43.061Z,1.80
2024-05-09T14:42:14.636Z,2.00
2024-05-09T14:44:43.331Z,2.00
2024-05-09T14:47:13.744Z,1.40
2024-05-09T14:49:44.729Z,1.88
2024-05-09T14:52:13.954Z,2.00
2024-05-09T14:54:44.056Z,2.15
2024-05-09T14:57:16.237Z,1.95
2024-05-09T14:59:48.865Z,1.80
2024-05-09T15:02:21.926Z,1.85
2024-05-09T15:07:39.754Z,1.90
2024-05-09T15:10:16.466Z,2.22
2024-05-09T15:12:48.565Z,1.98
2024-05-09T15:15:23.436Z,2.03
2024-05-09T15:18:00.814Z,2.00
2024-05-09T15:20:34.702Z,2.22
2024-05-09T15:23:07.460Z,1.77
2024-05-09T15:25:47.142Z,2.22
2024-05-09T15:28:16.875Z,2.00
2024-05-09T15:30:51.096Z,2.03
2024-05-09T15:33:22.817Z,2.17
2024-05-09T15:35:52.081Z,2.60
2024-05-09T15:38:23.401Z,2.00
2024-05-09T15:40:52.832Z,2.00
2024-05-09T15:43:31.998Z,1.90
2024-05-09T15:46:00.860Z,1.73
2024-05-09T15:48:29.052Z,1.80
2024-05-09T15:51:00.055Z,2.28
2024-05-09T15:53:32.839Z,2.20
2024-05-09T15:56:00.616Z,2.00
2024-05-09T15:58:28.398Z,2.30
2024-05-09T16:01:04.058Z,2.10
2024-05-09T16:03:39.607Z,1.83
2024-05-09T16:06:09.411Z,2.10
2024-05-09T16:08:39.211Z,1.77
2024-05-09T16:11:08.262Z,2.17
2024-05-09T16:13:36.822Z,1.98
2024-05-09T16:16:12.143Z,2.08
2024-05-09T16:18:40.407Z,2.58
2024-05-09T16:21:12.886Z,1.92
2024-05-09T16:23:43.945Z,1.80
2024-05-09T16:26:14.644Z,1.92
2024-05-09T16:28:45.086Z,2.45
2024-05-09T16:31:14.469Z,2.00
2024-05-09T16:33:43.857Z,2.20
2024-05-09T16:36:19.944Z,1.95
2024-05-09T16:38:51.235Z,2.00
2024-05-09T16:41:21.044Z,2.05
2024-05-09T16:43:51.326Z,1.83
2024-05-09T16:46:21.274Z,1.92
2024-05-09T16:48:51.948Z,2.00
2024-05-09T16:51:21.913Z,1.95
2024-05-09T16:53:50.255Z,2.10
2024-05-09T16:56:24.692Z,1.90
2024-05-09T16:59:12.579Z,2.47
2024-05-09T17:01:40.179Z,2.10
2024-05-09T17:04:10.970Z,2.33
2024-05-09T17:06:41.729Z,2.05
2024-05-09T17:09:15.675Z,2.20
2024-05-09T17:12:00.299Z,2.20
2024-05-09T17:14:37.804Z,2.45
2024-05-09T17:17:09.811Z,1.98
2024-05-09T17:19:43.208Z,2.15
2024-05-09T17:22:11.993Z,2.13
2024-05-09T17:24:43.428Z,1.70
2024-05-09T17:27:12.486Z,1.85
2024-05-09T17:29:49.654Z,2.10
2024-05-09T17:32:30.511Z,2.10
2024-05-09T17:35:00.500Z,2.38
2024-05-09T17:37:36.272Z,1.80
2024-05-09T17:40:16.548Z,1.92
2024-05-09T17:42:46.206Z,2.17
2024-05-09T17:45:17.175Z,2.15
2024-05-09T17:47:51.861Z,2.42
2024-05-09T17:50:27.986Z,2.28
2024-05-09T17:53:04.057Z,2.20
2024-05-09T17:55:34.310Z,2.13
2024-05-09T17:58:05.630Z,2.20
2024-05-09T18:00:39.737Z,2.08
2024-05-09T18:03:15.915Z,2.40
2024-05-09T18:05:52.252Z,2.70
2024-05-09T18:08:19.599Z,2.20
2024-05-09T18:10:48.212Z,2.20
2024-05-09T18:13:26.180Z,2.28
2024-05-09T18:15:54.981Z,2.45
2024-05-09T18:18:22.819Z,2.10
2024-05-09T18:21:07.772Z,1.90
2024-05-09T18:23:45.174Z,2.22
2024-05-09T18:26:23.563Z,2.30
2024-05-09T18:28:53.955Z,2.10
2024-05-09T18:31:21.278Z,2.08
2024-05-09T18:33:51.650Z,2.28
2024-05-09T18:36:19.895Z,2.47
2024-05-09T18:38:50.331Z,2.40
2024-05-09T18:41:24.743Z,2.30
2024-05-09T18:43:55.496Z,2.45
2024-05-09T18:46:32.153Z,2.28
2024-05-09T18:49:02.660Z,2.55
2024-05-09T18:51:31.325Z,2.90
2024-05-09T18:54:01.311Z,2.17
2024-05-09T18:56:32.954Z,2.88
2024-05-09T18:59:02.427Z,2.13
2024-05-09T19:01:29.943Z,2.30
2024-05-09T19:03:57.904Z,2.35
2024-05-09T19:06:27.672Z,2.20
2024-05-09T19:08:57.784Z,2.30
2024-05-09T19:11:28.766Z,2.10
2024-05-09T19:14:07.774Z,2.67
2024-05-09T19:16:40.885Z,2.50
2024-05-09T19:19:12.928Z,4.32
2024-05-09T19:21:43.015Z,3.28
2024-05-09T19:24:13.589Z,2.72
2024-05-09T19:26:44.054Z,2.63
2024-05-09T19:29:21.905Z,2.78
2024-05-09T19:32:01.047Z,2.33
2024-05-09T19:34:35.382Z,2.40
2024-05-09T19:37:03.423Z,2.90
2024-05-09T19:39:34.559Z,2.47
2024-05-09T19:42:02.458Z,2.67
2024-05-09T19:44:31.959Z,2.67
2024-05-09T19:47:00.965Z,2.73
2024-05-09T19:49:37.422Z,2.63
2024-05-09T19:52:05.273Z,2.43
2024-05-09T19:54:32.793Z,2.93
2024-05-09T19:57:00.152Z,3.17
2024-05-09T19:59:28.840Z,2.53
2024-05-09T20:01:57.669Z,2.77
2024-05-09T20:04:30.668Z,2.50
2024-05-09T20:07:02.633Z,2.37
2024-05-09T20:09:33.920Z,2.87
2024-05-09T20:12:02.231Z,2.67
2024-05-09T20:14:37.593Z,2.90
2024-05-09T20:17:05.898Z,2.67
2024-05-09T20:19:33.276Z,2.60
2024-05-09T20:22:03.627Z,2.70
2024-05-09T20:24:39.808Z,2.67
2024-05-09T20:27:15.673Z,2.70
2024-05-09T20:29:45.396Z,2.70
2024-05-09T20:32:16.178Z,2.70
2024-05-09T20:34:54.797Z,2.70
2024-05-09T20:37:26.426Z,3.00
2024-05-09T20:39:59.718Z,2.63
2024-05-09T20:42:29.256Z,2.73
2024-05-09T20:44:59.126Z,2.60
2024-05-09T20:47:29.592Z,2.93
2024-05-09T20:50:00.764Z,2.90
2024-05-09T20:52:34.238Z,2.67
2024-05-09T20:55:03.392Z,2.50
2024-05-09T20:57:39.967Z,2.60
2024-05-09T21:00:19.201Z,2.60
2024-05-09T21:02:57.633Z,2.70
2024-05-09T21:05:30.264Z,2.60
2024-05-09T21:08:00.703Z,2.53
2024-05-09T21:10:32.297Z,2.70
2024-05-09T21:13:03.517Z,2.60
2024-05-09T21:15:34.240Z,2.67
2024-05-09T21:18:03.311Z,3.00
2024-05-09T21:20:33.717Z,2.60
2024-05-09T21:23:07.533Z,2.80
2024-05-09T21:25:37.843Z,2.40
2024-05-09T21:28:07.120Z,2.83
2024-05-09T21:30:46.081Z,2.90
2024-05-09T21:33:15.465Z,3.40
2024-05-09T21:35:48.918Z,3.00
2024-05-09T21:38:17.490Z,3.20
2024-05-09T21:40:46.464Z,2.87
2024-05-09T21:43:21.969Z,3.03
2024-05-09T21:45:49.612Z,3.10
2024-05-09T21:48:17.420Z,3.10
2024-05-09T21:50:47.073Z,2.87
2024-05-09T21:53:15.861Z,2.90
2024-05-09T21:55:47.961Z,2.77
2024-05-09T21:58:18.291Z,3.30
2024-05-09T22:00:47.381Z,2.87
2024-05-09T22:03:17.425Z,3.10
2024-05-09T22:05:47.563Z,2.83
2024-05-09T22:08:15.947Z,3.30
2024-05-09T22:10:49.246Z,2.80
2024-05-09T22:13:20.539Z,2.83
2024-05-09T22:15:49.813Z,2.90
2024-05-09T22:18:21.581Z,3.13
2024-05-09T22:20:51.360Z,3.00
2024-05-09T22:23:22.873Z,2.63
2024-05-09T22:25:52.181Z,2.93
2024-05-09T22:28:19.775Z,3.13
2024-05-09T22:30:48.569Z,3.23
2024-05-09T22:33:27.436Z,2.70
2024-05-09T22:35:57.482Z,3.07
2024-05-09T22:38:27.688Z,3.20
2024-05-09T22:43:38.729Z,3.40
2024-05-09T22:46:07.801Z,2.97
2024-05-09T22:48:35.627Z,2.90
2024-05-09T22:51:04.611Z,3.23
2024-05-09T22:53:35.590Z,3.20
2024-05-09T22:56:05.108Z,3.67
2024-05-09T22:58:34.601Z,3.17
2024-05-09T23:01:07.539Z,3.07
2024-05-09T23:03:35.610Z,3.10
2024-05-09T23:06:09.467Z,3.70
2024-05-09T23:08:39.873Z,3.37
2024-05-09T23:11:10.681Z,3.33
2024-05-09T23:13:39.294Z,3.60
2024-05-09T23:16:10.594Z,3.27
2024-05-09T23:18:40.547Z,3.07
2024-05-09T23:21:18.867Z,2.93
2024-05-09T23:23:49.857Z,3.33
2024-05-09T23:26:22.246Z,3.30
2024-05-09T23:28:53.184Z,3.67
2024-05-09T23:31:22.041Z,3.40
2024-05-09T23:33:54.061Z,3.23
2024-05-09T23:36:26.001Z,3.13
2024-05-09T23:38:55.054Z,3.37
2024-05-09T23:41:24.500Z,3.93
2024-05-09T23:43:55.221Z,3.40
2024-05-09T23:46:25.979Z,3.60
2024-05-09T23:48:55.459Z,3.10
2024-05-09T23:51:26.237Z,3.40
2024-05-09T23:56:37.375Z,3.40
2024-05-09T23:59:07.251Z,3.37
